createdAt,value
2018-06-18T00:01:08.813Z,90.50
2018-06-18T00:04:13.443Z,90.35
2018-06-18T00:07:18.134Z,90.87
2018-06-18T00:10:22.804Z,90.65
2018-06-18T00:13:27.161Z,91.14
2018-06-18T00:16:31.554Z,91.45
2018-06-18T00:19:35.922Z,90.84
2018-06-18T00:22:40.311Z,91.37
2018-06-18T00:25:44.685Z,91.82
2018-06-18T00:28:49.045Z,92.24
2018-06-18T00:31:53.417Z,91.73
2018-06-18T00:34:57.857Z,92.17
2018-06-18T00:38:02.230Z,92.25
2018-06-18T00:41:06.710Z,91.93
2018-06-18T00:44:11.085Z,92.33
2018-06-18T00:47:15.449Z,92.97
2018-06-18T00:50:19.829Z,92.51
2018-06-18T00:53:25.038Z,92.86
2018-06-18T00:56:29.441Z,93.06
2018-06-18T00:59:34.077Z,92.19
2018-06-18T01:02:38.502Z,92.59
2018-06-18T01:05:42.872Z,92.80
2018-06-18T01:08:47.254Z,92.45
2018-06-18T01:11:51.634Z,92.84
2018-06-18T01:14:56.009Z,92.46
2018-06-18T01:18:00.384Z,92.40
2018-06-18T01:21:04.833Z,92.29
2018-06-18T01:24:28.133Z,91.85
2018-06-18T01:27:32.496Z,92.11
2018-06-18T01:30:37.228Z,91.76
2018-06-18T01:33:41.661Z,91.74
2018-06-18T01:36:46.049Z,92.14
2018-06-18T01:39:50.423Z,91.78
2018-06-18T01:42:54.813Z,91.99
2018-06-18T01:45:59.201Z,92.21
2018-06-18T01:49:03.580Z,92.48
2018-06-18T01:52:07.957Z,92.38
2018-06-18T01:55:12.341Z,92.24
2018-06-18T01:58:16.714Z,92.30
2018-06-18T02:01:21.095Z,92.22
2018-06-18T02:04:26.301Z,91.96
2018-06-18T02:07:30.684Z,91.90
2018-06-18T02:10:35.073Z,92.19
2018-06-18T02:13:39.420Z,92.14
2018-06-18T02:16:43.789Z,91.94
2018-06-18T02:19:48.161Z,91.64
2018-06-18T02:22:52.522Z,92.14
2018-06-18T02:25:57.031Z,91.92
2018-06-18T02:29:07.490Z,91.91
2018-06-18T02:32:17.353Z,91.62
2018-06-18T02:35:27.177Z,91.57
2018-06-18T02:38:33.059Z,91.17
2018-06-18T02:41:37.838Z,92.00
2018-06-18T02:44:42.388Z,91.52
2018-06-18T02:47:46.952Z,91.74
2018-06-18T02:50:51.505Z,91.44
2018-06-18T02:53:55.915Z,91.82
2018-06-18T02:57:04.592Z,92.17
2018-06-18T03:00:09.028Z,91.93
2018-06-18T03:03:13.432Z,92.62
2018-06-18T03:06:17.785Z,92.06
2018-06-18T03:09:22.148Z,92.86
2018-06-18T03:12:26.504Z,93.10
2018-06-18T03:15:30.897Z,93.46
2018-06-18T03:18:40.453Z,93.56
2018-06-18T03:21:50.003Z,93.61
2018-06-18T03:24:59.767Z,94.21
2018-06-18T03:28:09.530Z,94.08
2018-06-18T03:31:14.326Z,94.09
2018-06-18T03:34:18.745Z,94.53
2018-06-18T03:37:23.147Z,94.84
2018-06-18T03:40:27.544Z,94.63
2018-06-18T03:43:33.661Z,94.79
2018-06-18T03:46:38.193Z,95.21
2018-06-18T03:49:42.593Z,95.85
2018-06-18T03:52:46.985Z,95.70
2018-06-18T03:55:55.723Z,96.18
2018-06-18T03:59:00.149Z,95.45
2018-06-18T04:02:17.976Z,96.27
2018-06-18T04:05:27.830Z,95.72
2018-06-18T04:08:32.213Z,96.14
2018-06-18T04:11:41.783Z,95.82
2018-06-18T04:14:46.192Z,95.52
2018-06-18T04:17:50.609Z,95.38
2018-06-18T04:20:55.001Z,95.90
2018-06-18T04:23:59.414Z,95.30
2018-06-18T04:27:03.833Z,96.09
2018-06-18T04:30:08.217Z,95.35
2018-06-18T04:33:14.317Z,96.19
2018-06-18T04:36:18.758Z,96.37
2018-06-18T04:39:23.170Z,95.62
2018-06-18T04:42:32.793Z,96.29
2018-06-18T04:45:43.438Z,96.41
2018-06-18T04:48:52.950Z,96.27
2018-06-18T04:51:57.363Z,95.91
2018-06-18T04:55:01.790Z,95.83
2018-06-18T04:58:06.525Z,95.55
2018-06-18T05:01:19.061Z,95.44
2018-06-18T05:04:23.687Z,95.35
2018-06-18T05:07:30.801Z,95.60
2018-06-18T05:10:35.870Z,94.52
2018-06-18T05:13:41.691Z,94.27
2018-06-18T05:16:48.104Z,92.88
2018-06-18T05:19:52.611Z,92.54
2018-06-18T05:23:00.223Z,92.99
2018-06-18T05:26:04.966Z,94.01
2018-06-18T05:29:10.180Z,92.33
2018-06-18T05:32:22.301Z,91.67
2018-06-18T05:35:33.252Z,92.54
2018-06-18T05:38:38.314Z,90.97
2018-06-18T05:41:49.688Z,90.30
2018-06-18T05:44:56.973Z,90.83
2018-06-18T05:48:01.542Z,89.34
2018-06-18T05:51:13.490Z,89.29
2018-06-18T05:54:18.705Z,90.13
2018-06-18T05:57:34.447Z,90.50
2018-06-18T06:00:42.787Z,89.87
2018-06-18T06:03:47.891Z,90.25
2018-06-18T06:06:58.542Z,90.82
2018-06-18T06:10:03.130Z,90.51
2018-06-18T06:13:19.686Z,89.87
2018-06-18T06:16:30.078Z,88.85
2018-06-18T06:19:46.086Z,88.12
2018-06-18T06:22:50.763Z,88.48
2018-06-18T06:25:57.262Z,88.52
2018-06-18T06:29:03.140Z,87.17
2018-06-18T06:32:12.464Z,86.90
2018-06-18T06:35:27.354Z,86.86
2018-06-18T06:38:32.172Z,87.01
2018-06-18T06:41:40.922Z,86.05
2018-06-18T06:44:49.530Z,85.63
2018-06-18T06:47:56.186Z,86.02
2018-06-18T06:51:06.275Z,85.52
2018-06-18T06:54:27.903Z,86.89
2018-06-18T06:57:33.076Z,85.70
2018-06-18T07:00:51.341Z,85.95
2018-06-18T07:03:56.668Z,85.59
2018-06-18T07:07:13.554Z,85.33
2018-06-18T07:10:30.466Z,85.79
2018-06-18T07:13:35.268Z,85.27
2018-06-18T07:16:40.411Z,85.01
2018-06-18T07:23:13.242Z,84.13
2018-06-18T07:26:33.166Z,83.30
2018-06-18T07:36:56.047Z,81.67
2018-06-18T07:40:22.675Z,81.30
2018-06-18T07:43:53.900Z,81.58
2018-06-18T07:46:58.409Z,80.11
2018-06-18T07:50:04.264Z,78.32
2018-06-18T07:53:23.370Z,78.46
2018-06-18T07:56:54.145Z,77.37
2018-06-18T08:00:06.674Z,74.89
2018-06-18T08:03:11.284Z,75.91
2018-06-18T08:09:37.088Z,75.67
2018-06-18T08:12:43.225Z,75.43
2018-06-18T08:15:59.439Z,74.20
2018-06-18T08:19:12.907Z,72.44
2018-06-18T08:22:21.079Z,71.93
2018-06-18T08:25:26.058Z,71.75
2018-06-18T08:28:33.822Z,73.32
2018-06-18T08:31:44.470Z,72.09
2018-06-18T08:34:52.209Z,72.52
2018-06-18T08:37:59.440Z,70.99
2018-06-18T08:41:05.634Z,72.02
2018-06-18T08:44:11.264Z,72.00
2018-06-18T08:47:19.249Z,70.85
2018-06-18T08:50:29.420Z,70.20
2018-06-18T08:53:39.692Z,72.13
2018-06-18T08:56:49.731Z,72.32
2018-06-18T08:59:59.955Z,71.33
2018-06-18T09:03:10.500Z,71.23
2018-06-18T09:06:15.978Z,72.56
2018-06-18T09:09:22.196Z,70.06
2018-06-18T09:12:26.673Z,71.88
2018-06-18T09:15:31.802Z,73.80
2018-06-18T09:18:39.200Z,73.93
2018-06-18T09:21:46.337Z,75.11
2018-06-18T09:24:50.902Z,76.01
2018-06-18T09:27:55.983Z,76.36
2018-06-18T09:31:02.359Z,76.26
2018-06-18T09:34:09.440Z,74.66
2018-06-18T09:37:16.159Z,73.76
2018-06-18T09:40:22.728Z,72.74
2018-06-18T09:43:27.402Z,72.08
2018-06-18T09:46:35.305Z,72.89
2018-06-18T09:49:45.822Z,72.14
2018-06-18T09:52:55.455Z,72.68
2018-06-18T09:58:07.955Z,71.22
2018-06-18T10:01:22.254Z,71.87
2018-06-18T10:04:29.766Z,70.73
2018-06-18T10:07:39.756Z,71.30
2018-06-18T10:10:50.744Z,71.86
2018-06-18T10:13:57.417Z,74.26
2018-06-18T10:17:02.178Z,75.89
2018-06-18T10:20:09.335Z,76.34
2018-06-18T10:23:14.934Z,75.69
2018-06-18T10:26:28.025Z,74.58
2018-06-18T10:29:32.926Z,75.71
2018-06-18T10:32:43.963Z,77.76
2018-06-18T10:35:56.076Z,78.70
2018-06-18T10:39:08.108Z,78.80
2018-06-18T10:42:19.949Z,79.23
2018-06-18T10:45:34.955Z,79.51
2018-06-18T10:48:43.236Z,78.53
2018-06-18T10:51:52.317Z,78.34
2018-06-18T10:55:02.274Z,78.89
2018-06-18T10:58:10.467Z,79.65
2018-06-18T11:01:22.490Z,80.87
2018-06-18T11:04:29.965Z,82.14
2018-06-18T11:07:35.035Z,81.93
2018-06-18T11:10:45.553Z,82.88
2018-06-18T11:56:33.206Z,94.57
2018-06-18T11:59:42.889Z,94.52
2018-06-18T12:02:52.561Z,94.48
2018-06-18T12:06:02.149Z,94.14
2018-06-18T12:09:13.888Z,93.59
2018-06-18T12:12:18.538Z,92.98
2018-06-18T12:15:23.527Z,93.34
2018-06-18T12:18:28.612Z,93.52
2018-06-18T12:21:33.560Z,92.67
2018-06-18T12:24:37.987Z,92.43
2018-06-18T12:27:42.436Z,91.86
2018-06-18T12:30:46.841Z,91.72
2018-06-18T12:33:51.461Z,91.18
2018-06-18T12:36:55.914Z,90.62
2018-06-18T12:40:00.342Z,91.40
2018-06-18T12:43:04.831Z,90.57
2018-06-18T12:46:14.466Z,90.70
2018-06-18T12:49:24.181Z,91.36
2018-06-18T12:52:33.685Z,91.29
2018-06-18T12:55:43.363Z,90.52
2018-06-18T12:58:47.766Z,90.27
2018-06-18T13:02:21.497Z,90.90
2018-06-18T13:05:25.916Z,90.18
2018-06-18T13:08:30.313Z,90.41
2018-06-18T13:11:34.713Z,90.96
2018-06-18T13:14:39.096Z,91.66
2018-06-18T13:17:43.469Z,91.40
2018-06-18T13:20:47.849Z,90.28
2018-06-18T13:23:52.216Z,91.72
2018-06-18T13:26:56.605Z,92.15
2018-06-18T13:30:00.973Z,92.19
2018-06-18T13:33:05.385Z,91.87
2018-06-18T13:36:09.764Z,91.67
2018-06-18T13:39:19.256Z,92.71
2018-06-18T13:42:28.985Z,92.31
2018-06-18T13:45:43.454Z,91.07
2018-06-18T13:48:50.680Z,90.75
2018-06-18T13:51:55.065Z,91.24
2018-06-18T13:54:59.425Z,90.39
2018-06-18T13:58:03.800Z,89.99
2018-06-18T14:01:10.376Z,89.62
2018-06-18T14:04:14.744Z,89.78
2018-06-18T14:07:19.133Z,89.02
2018-06-18T14:10:23.501Z,89.54
2018-06-18T14:13:27.877Z,89.75
2018-06-18T14:16:32.208Z,87.53
2018-06-18T14:19:41.747Z,87.53
2018-06-18T14:22:46.149Z,88.49
2018-06-18T14:25:50.526Z,86.79
2018-06-18T14:28:54.889Z,87.64
2018-06-18T14:32:00.188Z,86.48
2018-06-18T14:35:09.762Z,87.35
2018-06-18T14:38:19.258Z,87.09
2018-06-18T14:41:23.646Z,86.62
2018-06-18T14:44:28.030Z,87.46
2018-06-18T14:47:32.463Z,86.42
2018-06-18T14:50:36.851Z,86.04
2018-06-18T14:53:41.236Z,85.53
2018-06-18T14:56:45.903Z,85.16
2018-06-18T15:00:00.516Z,84.86
2018-06-18T15:03:04.931Z,84.49
2018-06-18T15:06:09.317Z,83.81
2018-06-18T15:09:13.790Z,84.13
2018-06-18T15:12:20.961Z,81.37
2018-06-18T15:16:31.323Z,80.75
2018-06-18T15:19:35.721Z,79.89
2018-06-18T15:22:41.005Z,80.39
2018-06-18T15:25:49.306Z,80.72
2018-06-18T15:28:53.753Z,80.41
2018-06-18T15:31:58.145Z,78.96
2018-06-18T15:35:02.540Z,79.64
2018-06-18T15:38:06.987Z,79.24
2018-06-18T15:41:11.403Z,79.91
2018-06-18T15:44:15.866Z,81.55
2018-06-18T15:47:20.189Z,81.31
2018-06-18T15:50:24.605Z,80.48
2018-06-18T15:53:29.032Z,80.66
2018-06-18T15:56:33.479Z,80.22
2018-06-18T15:59:37.813Z,80.38
2018-06-18T16:02:42.327Z,78.65
2018-06-18T16:05:47.075Z,78.25
2018-06-18T16:08:51.505Z,78.60
2018-06-18T16:11:55.905Z,79.68
2018-06-18T16:15:00.289Z,79.86
2018-06-18T16:18:05.021Z,79.78
2018-06-18T16:21:09.396Z,79.58
2018-06-18T16:24:13.772Z,79.46
2018-06-18T16:27:18.185Z,79.50
2018-06-18T16:30:22.569Z,80.74
2018-06-18T16:33:26.973Z,80.46
2018-06-18T16:36:31.502Z,79.91
2018-06-18T16:39:35.883Z,80.44
2018-06-18T16:42:40.272Z,80.56
2018-06-18T16:45:44.660Z,80.98
2018-06-18T16:48:49.396Z,80.68
2018-06-18T16:51:53.772Z,81.11
2018-06-18T16:54:58.172Z,80.96
2018-06-18T16:58:02.602Z,80.80
2018-06-18T17:01:06.973Z,80.80
2018-06-18T17:04:11.347Z,77.14
2018-06-18T17:07:15.753Z,78.49
2018-06-18T17:10:20.140Z,79.50
2018-06-18T17:13:24.507Z,77.94
2018-06-18T17:16:28.878Z,78.51
2018-06-18T17:19:33.244Z,78.84
2018-06-18T17:22:37.605Z,77.61
2018-06-18T17:25:41.991Z,78.07
2018-06-18T17:28:46.345Z,78.44
2018-06-18T17:31:50.772Z,78.25
2018-06-18T17:34:55.189Z,79.68
2018-06-18T17:37:59.574Z,80.64
2018-06-18T17:41:04.022Z,79.11
2018-06-18T17:44:08.413Z,78.91
2018-06-18T17:47:12.805Z,78.21
2018-06-18T17:50:17.169Z,78.74
2018-06-18T17:53:21.554Z,79.23
2018-06-18T17:56:25.994Z,79.91
2018-06-18T17:59:30.528Z,79.29
2018-06-18T18:02:35.001Z,79.52
2018-06-18T18:05:39.370Z,80.25
2018-06-18T18:08:44.133Z,81.11
2018-06-18T18:11:48.503Z,82.28
2018-06-18T18:14:52.916Z,82.77
2018-06-18T18:17:57.281Z,82.71
2018-06-18T18:21:01.665Z,82.66
2018-06-18T18:24:06.100Z,82.90
2018-06-18T18:27:11.057Z,82.89
2018-06-18T18:30:15.484Z,83.22
2018-06-18T18:33:19.900Z,82.37
2018-06-18T18:36:24.349Z,81.21
2018-06-18T18:39:28.855Z,82.28
2018-06-18T18:42:33.189Z,81.92
2018-06-18T18:45:37.584Z,82.71
2018-06-18T18:48:42.007Z,83.30
2018-06-18T18:51:46.889Z,83.31
2018-06-18T18:56:07.404Z,83.55
2018-06-18T18:59:20.743Z,83.34
2018-06-18T19:02:25.154Z,83.68
2018-06-18T19:05:29.554Z,82.69
2018-06-18T19:08:33.921Z,83.43
2018-06-18T19:11:38.372Z,83.99
2018-06-18T19:14:42.767Z,83.70
2018-06-18T19:17:47.185Z,84.17
2018-06-18T19:21:09.990Z,84.95
2018-06-18T19:24:14.381Z,84.92
2018-06-18T19:27:18.800Z,85.27
2018-06-18T19:30:23.200Z,85.28
2018-06-18T19:33:52.777Z,84.99
2018-06-18T19:36:58.539Z,85.88
2018-06-18T19:40:02.905Z,85.99
2018-06-18T19:43:07.350Z,86.00
2018-06-18T19:46:11.748Z,85.65
2018-06-18T19:49:16.153Z,85.14
2018-06-18T19:52:20.586Z,85.48
2018-06-18T19:55:28.050Z,86.49
2018-06-18T19:58:32.448Z,86.86
2018-06-18T20:01:37.041Z,87.21
2018-06-18T20:04:41.448Z,87.45
2018-06-18T20:07:56.474Z,87.08
2018-06-18T20:11:00.848Z,88.14
2018-06-18T20:14:05.316Z,88.09
2018-06-18T20:17:09.746Z,88.13
2018-06-18T20:20:14.892Z,88.37
2018-06-18T20:23:22.572Z,89.05
2018-06-18T20:26:26.952Z,88.38
2018-06-18T20:29:31.368Z,88.93
2018-06-18T20:32:35.800Z,89.63
2018-06-18T20:35:44.476Z,89.72
2018-06-18T20:38:48.873Z,89.70
2018-06-18T20:41:53.283Z,89.96
2018-06-18T20:44:57.670Z,90.10
2018-06-18T20:48:02.049Z,89.73
2018-06-18T20:51:06.477Z,90.69
2018-06-18T20:54:11.789Z,90.43
2018-06-18T20:57:16.190Z,90.49
2018-06-18T21:00:20.584Z,91.12
2018-06-18T21:03:25.013Z,90.73
2018-06-18T21:06:29.443Z,90.94
2018-06-18T21:09:33.865Z,90.96
2018-06-18T21:12:38.277Z,90.90
2018-06-18T21:15:42.671Z,89.95
2018-06-18T21:18:47.079Z,88.98
2018-06-18T21:21:51.473Z,88.49
2018-06-18T21:24:55.880Z,88.96
2018-06-18T21:28:00.614Z,88.46
2018-06-18T21:31:05.038Z,88.17
2018-06-18T21:34:09.454Z,87.78
2018-06-18T21:37:13.869Z,87.86
2018-06-18T21:40:18.272Z,88.29
2018-06-18T21:43:22.696Z,88.11
2018-06-18T21:46:27.210Z,88.42
2018-06-18T21:49:31.593Z,88.54
2018-06-18T21:52:35.981Z,89.60
2018-06-18T21:55:40.393Z,89.21
2018-06-18T21:58:44.814Z,88.88
2018-06-18T22:01:49.240Z,89.71
2018-06-18T22:04:53.625Z,89.39
2018-06-18T22:07:58.114Z,88.43
2018-06-18T22:11:02.542Z,87.76
2018-06-18T22:14:06.994Z,88.39
2018-06-18T22:17:11.473Z,88.15
2018-06-18T22:20:15.897Z,87.67
2018-06-18T22:23:20.320Z,88.45
2018-06-18T22:26:24.748Z,88.73
2018-06-18T22:29:29.141Z,88.35
2018-06-18T22:32:33.569Z,88.28
2018-06-18T22:35:38.014Z,88.19
2018-06-18T22:38:42.414Z,88.72
2018-06-18T22:41:46.843Z,88.48
2018-06-18T22:44:51.869Z,88.40
2018-06-18T22:47:56.278Z,88.67
2018-06-18T22:51:00.708Z,88.53
2018-06-18T22:54:05.205Z,89.29
2018-06-18T22:57:09.563Z,89.89
2018-06-18T23:00:13.965Z,89.88
2018-06-18T23:03:18.381Z,89.55
2018-06-18T23:06:22.801Z,89.44
2018-06-18T23:09:27.222Z,89.95
2018-06-18T23:12:37.546Z,89.15
2018-06-18T23:15:41.685Z,88.28
2018-06-18T23:18:46.151Z,89.10
2018-06-18T23:21:50.577Z,88.80
2018-06-18T23:24:55.010Z,89.06
2018-06-18T23:27:59.413Z,88.10
2018-06-18T23:31:03.841Z,89.29
2018-06-18T23:34:08.296Z,88.52
2018-06-18T23:37:12.749Z,89.52
2018-06-18T23:40:17.189Z,89.36
2018-06-18T23:43:21.585Z,89.77
2018-06-18T23:46:25.985Z,89.91
2018-06-18T23:49:30.383Z,89.24
2018-06-18T23:52:34.808Z,89.92
2018-06-18T23:55:39.244Z,90.77
2018-06-18T23:58:43.672Z,90.74
